Time;durP1;ratioP1;P1;durP2;ratioP2;P2;SDS_P1;SDS_P2;PMS_P1;PMS_P2;Temp;Humidity;BMP_temperature;BMP_pressure;BME280_temperature;BME280_humidity;BME280_pressure;Samples;Min_cycle;Max_cycle;Signal;HPM_P1;HPM_P2
2023/04/20 00:02:22;;;;;;;7.10;2.53;;;;;;;;;;5117558;27;20118;-67
2023/04/20 00:04:50;;;;;;;9.55;2.55;;;;;;;;;;5115490;27;20047;-67
2023/04/20 00:07:17;;;;;;;8.45;2.10;;;;;;;;;;5108167;27;20083;-67
2023/04/20 00:09:44;;;;;;;6.35;2.25;;;;;;;;;;5111039;27;20043;-67
2023/04/20 00:12:13;;;;;;;9.75;2.20;;;;;;;;;;5110531;27;20087;-67
2023/04/20 00:14:40;;;;;;;5.93;2.25;;;;;;;;;;5100781;27;20433;-67
2023/04/20 00:17:07;;;;;;;7.50;2.38;;;;;;;;;;5110659;27;20062;-67
2023/04/20 00:19:35;;;;;;;13.45;2.30;;;;;;;;;;5105899;27;20043;-67
2023/04/20 00:22:02;;;;;;;7.72;2.10;;;;;;;;;;5107748;27;20539;-67
2023/04/20 00:24:29;;;;;;;8.40;2.08;;;;;;;;;;5101747;27;20048;-67
2023/04/20 00:26:57;;;;;;;9.48;2.20;;;;;;;;;;5115478;27;20040;-68
2023/04/20 00:29:25;;;;;;;6.07;2.17;;;;;;;;;;5114961;27;20405;-67
2023/04/20 00:31:53;;;;;;;7.45;2.03;;;;;;;;;;5108295;27;20042;-68
2023/04/20 00:34:21;;;;;;;7.00;2.28;;;;;;;;;;5112201;27;20405;-67
2023/04/20 00:36:48;;;;;;;9.25;1.90;;;;;;;;;;5109877;27;20486;-67
2023/04/20 00:39:16;;;;;;;4.53;1.70;;;;;;;;;;5106683;27;20059;-68
2023/04/20 00:41:43;;;;;;;5.38;2.00;;;;;;;;;;5110377;27;20073;-67
2023/04/20 00:44:12;;;;;;;10.88;1.60;;;;;;;;;;5109684;27;20055;-67
2023/04/20 00:46:41;;;;;;;7.57;1.90;;;;;;;;;;5105900;27;20056;-68
2023/04/20 00:49:08;;;;;;;8.13;1.83;;;;;;;;;;5113257;27;20060;-67
2023/04/20 00:51:36;;;;;;;6.25;1.60;;;;;;;;;;5111457;27;20048;-67
2023/04/20 00:54:03;;;;;;;4.65;1.52;;;;;;;;;;5109090;27;20048;-67
2023/04/20 00:56:31;;;;;;;16.48;1.85;;;;;;;;;;5117874;27;20046;-68
2023/04/20 00:58:58;;;;;;;10.23;1.75;;;;;;;;;;5114813;27;20050;-67
2023/04/20 01:01:25;;;;;;;6.47;1.55;;;;;;;;;;5113684;27;20044;-67
2023/04/20 01:03:54;;;;;;;6.80;1.60;;;;;;;;;;5102630;27;20469;-67
2023/04/20 01:06:21;;;;;;;7.03;1.50;;;;;;;;;;5128241;27;20047;-68
2023/04/20 01:08:50;;;;;;;1.83;1.13;;;;;;;;;;5125368;27;20051;-67
2023/04/20 01:11:17;;;;;;;4.95;1.27;;;;;;;;;;5127277;27;20058;-68
2023/04/20 01:13:48;;;;;;;6.60;1.40;;;;;;;;;;5126683;27;20529;-68
2023/04/20 01:16:16;;;;;;;6.35;1.30;;;;;;;;;;5128417;27;20051;-67
2023/04/20 01:18:45;;;;;;;4.70;1.20;;;;;;;;;;5123916;27;20579;-67
2023/04/20 01:21:15;;;;;;;4.72;1.40;;;;;;;;;;5119092;27;20097;-68
2023/04/20 01:23:44;;;;;;;3.80;1.42;;;;;;;;;;5120900;27;20505;-67
2023/04/20 01:26:11;;;;;;;3.65;1.77;;;;;;;;;;5106057;27;20058;-67
2023/04/20 01:28:39;;;;;;;7.55;1.50;;;;;;;;;;5133286;27;20078;-67
2023/04/20 01:31:07;;;;;;;6.38;2.10;;;;;;;;;;5121260;27;20051;-67
2023/04/20 01:33:34;;;;;;;4.65;1.45;;;;;;;;;;5127907;27;20082;-68
2023/04/20 01:36:01;;;;;;;7.85;1.60;;;;;;;;;;5128611;27;20130;-67
2023/04/20 01:38:30;;;;;;;5.38;1.30;;;;;;;;;;5110797;27;20057;-67
2023/04/20 01:40:59;;;;;;;6.55;1.10;;;;;;;;;;5129603;27;20569;-67
2023/04/20 01:43:26;;;;;;;5.78;1.40;;;;;;;;;;5129753;27;20104;-67
2023/04/20 01:45:54;;;;;;;9.95;1.73;;;;;;;;;;5131487;27;20220;-68
2023/04/20 01:48:21;;;;;;;3.88;1.30;;;;;;;;;;5109152;27;20043;-67
2023/04/20 01:50:51;;;;;;;4.68;1.40;;;;;;;;;;5122791;27;20158;-67
2023/04/20 01:53:18;;;;;;;3.75;1.25;;;;;;;;;;5112300;27;20043;-67
2023/04/20 01:55:45;;;;;;;9.73;1.40;;;;;;;;;;5128730;27;20054;-67
2023/04/20 01:58:14;;;;;;;8.95;1.50;;;;;;;;;;5130615;27;20051;-67
2023/04/20 02:00:41;;;;;;;8.73;1.50;;;;;;;;;;5112539;27;20073;-67
2023/04/20 02:03:09;;;;;;;4.10;1.30;;;;;;;;;;5131811;27;20059;-67
2023/04/20 02:05:37;;;;;;;9.35;1.50;;;;;;;;;;5111241;27;20047;-67
2023/04/20 02:08:04;;;;;;;6.05;1.33;;;;;;;;;;5131696;27;20077;-67
2023/04/20 02:10:31;;;;;;;8.40;1.40;;;;;;;;;;5124502;27;20516;-69
2023/04/20 02:12:59;;;;;;;8.60;1.50;;;;;;;;;;5130036;27;21455;-68
2023/04/20 02:15:27;;;;;;;9.93;1.73;;;;;;;;;;5111715;27;20081;-67
2023/04/20 02:17:56;;;;;;;5.32;1.50;;;;;;;;;;5131692;27;20051;-68
2023/04/20 02:20:23;;;;;;;13.50;1.92;;;;;;;;;;5130458;27;20051;-68
2023/04/20 02:22:50;;;;;;;7.25;1.50;;;;;;;;;;5127203;27;20127;-67
2023/04/20 02:25:18;;;;;;;7.85;2.47;;;;;;;;;;5132112;27;20043;-67
2023/04/20 02:27:45;;;;;;;6.80;1.55;;;;;;;;;;5130281;27;20039;-68
2023/04/20 02:30:13;;;;;;;6.72;1.55;;;;;;;;;;5113678;27;20059;-67
2023/04/20 02:32:42;;;;;;;10.18;2.03;;;;;;;;;;5131969;27;20051;-67
2023/04/20 02:35:09;;;;;;;9.18;2.25;;;;;;;;;;5132850;27;20058;-67
2023/04/20 02:37:37;;;;;;;6.43;1.70;;;;;;;;;;5129904;27;20051;-67
2023/04/20 02:40:04;;;;;;;7.40;1.80;;;;;;;;;;5113068;27;20451;-68
2023/04/20 02:42:31;;;;;;;11.48;1.95;;;;;;;;;;5130757;27;20047;-67
2023/04/20 02:44:59;;;;;;;7.68;1.90;;;;;;;;;;5104521;27;20525;-67
2023/04/20 02:47:26;;;;;;;9.20;1.77;;;;;;;;;;5127736;27;20043;-67
2023/04/20 02:49:55;;;;;;;8.68;1.60;;;;;;;;;;5130938;27;20066;-67
2023/04/20 02:52:22;;;;;;;6.63;1.80;;;;;;;;;;5129147;27;20072;-67
2023/04/20 02:54:49;;;;;;;9.57;1.70;;;;;;;;;;5130434;27;20096;-67
2023/04/20 02:57:16;;;;;;;10.95;1.95;;;;;;;;;;5130924;27;20387;-67
2023/04/20 02:59:44;;;;;;;14.77;1.98;;;;;;;;;;5129839;27;20092;-68
2023/04/20 03:02:11;;;;;;;8.20;1.80;;;;;;;;;;5130696;27;20047;-68
2023/04/20 03:04:39;;;;;;;6.13;1.73;;;;;;;;;;5118213;27;20048;-68
2023/04/20 03:07:08;;;;;;;6.53;1.73;;;;;;;;;;5115438;27;20132;-68
2023/04/20 03:09:35;;;;;;;9.82;1.98;;;;;;;;;;5117485;27;21828;-67
2023/04/20 03:12:03;;;;;;;10.55;1.95;;;;;;;;;;5117685;27;20142;-68
2023/04/20 03:14:30;;;;;;;13.95;1.88;;;;;;;;;;5117782;27;20050;-67
2023/04/20 03:16:57;;;;;;;9.90;1.92;;;;;;;;;;5115696;27;20071;-68
2023/04/20 03:19:25;;;;;;;12.65;2.40;;;;;;;;;;5117384;27;20048;-67
2023/04/20 03:21:52;;;;;;;9.13;1.73;;;;;;;;;;5112724;27;20526;-67
2023/04/20 03:24:21;;;;;;;7.45;1.75;;;;;;;;;;5112519;27;20039;-67
2023/04/20 03:26:48;;;;;;;8.23;2.00;;;;;;;;;;5110432;27;20047;-67
2023/04/20 03:29:15;;;;;;;6.85;1.88;;;;;;;;;;5114592;27;20047;-67
2023/04/20 03:31:42;;;;;;;9.18;1.95;;;;;;;;;;5120111;27;20043;-67
2023/04/20 03:34:10;;;;;;;9.90;2.55;;;;;;;;;;5115819;27;20118;-67
2023/04/20 03:36:37;;;;;;;11.85;2.20;;;;;;;;;;5120831;27;20052;-68
2023/04/20 03:39:05;;;;;;;5.63;1.85;;;;;;;;;;5114035;27;20069;-67
2023/04/20 03:41:33;;;;;;;12.27;2.03;;;;;;;;;;5118943;27;20047;-67
2023/04/20 03:44:01;;;;;;;7.32;1.92;;;;;;;;;;5117387;27;20070;-67
2023/04/20 03:46:28;;;;;;;14.07;2.03;;;;;;;;;;5123272;27;20389;-67
2023/04/20 03:48:55;;;;;;;12.25;2.55;;;;;;;;;;5118836;27;20047;-68
2023/04/20 03:51:22;;;;;;;8.07;1.75;;;;;;;;;;5103434;27;20619;-68
2023/04/20 03:53:50;;;;;;;9.40;1.83;;;;;;;;;;5111364;27;20120;-68
2023/04/20 03:56:17;;;;;;;8.93;2.00;;;;;;;;;;5110201;27;20128;-67
2023/04/20 03:58:46;;;;;;;12.15;2.85;;;;;;;;;;5111588;27;20047;-68
2023/04/20 04:01:14;;;;;;;9.15;2.33;;;;;;;;;;5115529;27;20047;-67
2023/04/20 04:03:41;;;;;;;9.63;2.75;;;;;;;;;;5123662;27;20130;-67
2023/04/20 04:06:10;;;;;;;9.82;2.22;;;;;;;;;;5129296;27;20541;-67
2023/04/20 04:08:37;;;;;;;10.02;2.20;;;;;;;;;;5128624;27;20086;-68
2023/04/20 04:11:04;;;;;;;9.38;2.08;;;;;;;;;;5128849;27;20413;-67
2023/04/20 04:13:31;;;;;;;12.80;2.72;;;;;;;;;;5129305;27;20473;-67
2023/04/20 04:16:00;;;;;;;13.18;2.72;;;;;;;;;;5130025;27;20126;-68
2023/04/20 04:18:31;;;;;;;7.38;2.28;;;;;;;;;;5129174;27;20054;-67
2023/04/20 04:20:58;;;;;;;9.25;2.47;;;;;;;;;;5122818;27;20103;-67
2023/04/20 04:23:25;;;;;;;11.30;2.38;;;;;;;;;;5123704;27;20523;-67
2023/04/20 04:25:53;;;;;;;8.75;2.30;;;;;;;;;;5124497;27;20043;-67
2023/04/20 04:28:20;;;;;;;6.65;2.28;;;;;;;;;;5128965;27;20054;-67
2023/04/20 04:30:47;;;;;;;10.02;2.63;;;;;;;;;;5112259;27;20047;-67
2023/04/20 04:33:17;;;;;;;7.53;2.17;;;;;;;;;;5127963;27;20091;-67
2023/04/20 04:35:45;;;;;;;12.43;2.17;;;;;;;;;;5130038;27;20092;-67
2023/04/20 04:38:13;;;;;;;8.38;2.03;;;;;;;;;;5127043;27;20072;-67
2023/04/20 04:40:40;;;;;;;9.57;2.38;;;;;;;;;;5129759;27;20059;-67
2023/04/20 04:43:09;;;;;;;15.18;2.15;;;;;;;;;;5127109;27;20367;-68
2023/04/20 04:45:38;;;;;;;10.13;2.00;;;;;;;;;;5125414;27;20051;-68
2023/04/20 04:48:06;;;;;;;11.27;2.30;;;;;;;;;;5125545;27;20051;-68
2023/04/20 04:50:34;;;;;;;11.27;2.00;;;;;;;;;;5129707;27;20425;-67
2023/04/20 04:53:02;;;;;;;6.63;1.83;;;;;;;;;;5127356;27;20085;-67
2023/04/20 04:55:29;;;;;;;12.65;2.28;;;;;;;;;;5115370;27;20043;-67
2023/04/20 04:58:00;;;;;;;8.65;2.20;;;;;;;;;;5126004;27;20047;-67
2023/04/20 05:00:28;;;;;;;9.43;2.40;;;;;;;;;;5127579;27;20043;-67
2023/04/20 05:02:55;;;;;;;11.10;1.90;;;;;;;;;;5126558;27;20054;-67
2023/04/20 05:05:24;;;;;;;12.23;2.03;;;;;;;;;;5105402;27;20055;-67
2023/04/20 05:07:52;;;;;;;12.52;2.53;;;;;;;;;;5127985;27;20075;-67
2023/04/20 05:10:20;;;;;;;7.15;1.90;;;;;;;;;;5109728;27;20385;-67
2023/04/20 05:12:47;;;;;;;10.82;2.17;;;;;;;;;;5128827;27;20393;-68
2023/04/20 05:15:14;;;;;;;10.93;2.28;;;;;;;;;;5123499;27;20085;-67
2023/04/20 05:17:42;;;;;;;9.73;2.15;;;;;;;;;;5105140;27;20059;-67
2023/04/20 05:20:10;;;;;;;9.68;2.33;;;;;;;;;;5124903;27;20415;-67
2023/04/20 05:22:38;;;;;;;10.88;2.22;;;;;;;;;;5123223;27;20057;-67
2023/04/20 05:25:07;;;;;;;10.85;2.60;;;;;;;;;;5108603;27;20058;-67
2023/04/20 05:27:34;;;;;;;13.68;2.65;;;;;;;;;;5128975;27;20134;-68
2023/04/20 05:30:01;;;;;;;9.55;2.20;;;;;;;;;;5101604;27;20051;-66
2023/04/20 05:32:29;;;;;;;12.15;2.40;;;;;;;;;;5127462;27;20058;-66
2023/04/20 05:34:57;;;;;;;10.57;2.38;;;;;;;;;;5126938;27;20043;-66
2023/04/20 05:37:24;;;;;;;13.20;2.35;;;;;;;;;;5106773;28;20055;-66
2023/04/20 05:39:51;;;;;;;9.60;2.10;;;;;;;;;;5119658;27;20052;-67
2023/04/20 05:42:20;;;;;;;8.93;2.15;;;;;;;;;;5128380;27;20070;-67
2023/04/20 05:44:50;;;;;;;6.75;1.90;;;;;;;;;;5127383;27;20314;-67
2023/04/20 05:47:17;;;;;;;10.60;2.53;;;;;;;;;;5121734;27;20061;-67
2023/04/20 05:49:45;;;;;;;9.05;2.10;;;;;;;;;;5126907;27;20050;-68
2023/04/20 05:52:12;;;;;;;11.60;2.40;;;;;;;;;;5128424;27;20078;-67
2023/04/20 05:54:39;;;;;;;11.40;2.00;;;;;;;;;;5126943;27;20039;-67
2023/04/20 05:57:06;;;;;;;11.73;2.45;;;;;;;;;;5128048;27;20493;-67
2023/04/20 05:59:35;;;;;;;11.10;2.53;;;;;;;;;;5126954;27;20198;-68
2023/04/20 06:02:02;;;;;;;10.13;2.30;;;;;;;;;;5125516;27;20058;-68
2023/04/20 06:04:30;;;;;;;11.98;2.20;;;;;;;;;;5108154;28;20131;-67
2023/04/20 06:06:58;;;;;;;10.38;2.53;;;;;;;;;;5107558;28;20104;-67
2023/04/20 06:09:26;;;;;;;11.32;2.30;;;;;;;;;;5104610;28;20063;-67
2023/04/20 06:11:53;;;;;;;15.40;3.42;;;;;;;;;;5101928;28;20044;-67
2023/04/20 06:14:20;;;;;;;14.73;2.22;;;;;;;;;;5109440;28;20066;-68
2023/04/20 06:16:49;;;;;;;9.13;2.08;;;;;;;;;;5112888;28;20131;-68
2023/04/20 06:19:16;;;;;;;9.80;2.00;;;;;;;;;;5107611;28;20059;-69
2023/04/20 06:21:43;;;;;;;5.80;2.00;;;;;;;;;;5109233;28;20039;-68
2023/04/20 06:24:11;;;;;;;7.47;2.05;;;;;;;;;;5103007;28;20065;-68
2023/04/20 06:26:38;;;;;;;7.22;2.03;;;;;;;;;;5116838;27;20130;-68
2023/04/20 06:29:05;;;;;;;15.05;1.85;;;;;;;;;;5106274;27;20056;-68
2023/04/20 06:31:33;;;;;;;9.55;2.15;;;;;;;;;;5110169;27;20089;-68
2023/04/20 06:34:01;;;;;;;7.75;1.83;;;;;;;;;;5112775;27;20415;-68
2023/04/20 06:36:29;;;;;;;10.18;2.08;;;;;;;;;;5113627;27;20051;-68
2023/04/20 06:38:56;;;;;;;8.48;1.90;;;;;;;;;;5109117;27;20089;-69
2023/04/20 06:41:24;;;;;;;7.45;1.88;;;;;;;;;;5106439;27;20047;-68
2023/04/20 06:43:51;;;;;;;13.27;2.10;;;;;;;;;;5107250;27;20040;-68
2023/04/20 06:46:18;;;;;;;8.85;1.77;;;;;;;;;;5108909;27;20066;-68
2023/04/20 06:48:45;;;;;;;7.95;1.40;;;;;;;;;;5111607;27;20043;-68
2023/04/20 06:51:14;;;;;;;5.07;1.75;;;;;;;;;;5103236;27;20051;-68
2023/04/20 06:53:41;;;;;;;8.55;1.60;;;;;;;;;;5111982;27;20052;-68
2023/04/20 06:56:10;;;;;;;9.63;1.60;;;;;;;;;;5113276;27;20514;-68
2023/04/20 06:58:37;;;;;;;4.55;1.60;;;;;;;;;;5118225;27;20047;-68
2023/04/20 07:01:05;;;;;;;11.43;1.98;;;;;;;;;;5121453;27;20054;-69
2023/04/20 07:03:32;;;;;;;10.45;1.83;;;;;;;;;;5113188;27;20050;-69
2023/04/20 07:05:59;;;;;;;8.77;1.75;;;;;;;;;;5126981;27;20047;-69
2023/04/20 07:08:28;;;;;;;5.40;1.50;;;;;;;;;;5130363;27;20069;-68
2023/04/20 07:10:55;;;;;;;8.85;1.70;;;;;;;;;;5128967;27;20513;-69
2023/04/20 07:13:22;;;;;;;7.65;1.48;;;;;;;;;;5129556;27;20046;-69
2023/04/20 07:15:50;;;;;;;9.25;1.40;;;;;;;;;;5116821;27;20076;-69
2023/04/20 07:18:17;;;;;;;11.15;1.48;;;;;;;;;;5129345;27;20525;-68
2023/04/20 07:20:44;;;;;;;7.18;1.50;;;;;;;;;;5129310;27;20046;-69
2023/04/20 07:23:11;;;;;;;7.55;1.50;;;;;;;;;;5129157;27;20047;-68
2023/04/20 07:25:40;;;;;;;3.15;1.40;;;;;;;;;;5130022;27;20047;-69
2023/04/20 07:28:07;;;;;;;8.13;1.67;;;;;;;;;;5108682;27;20054;-69
2023/04/20 07:30:34;;;;;;;8.93;1.60;;;;;;;;;;5127882;27;20043;-68
2023/04/20 07:33:02;;;;;;;6.70;1.42;;;;;;;;;;5128931;27;20058;-68
2023/04/20 07:35:29;;;;;;;6.88;1.30;;;;;;;;;;5124979;27;20048;-68
2023/04/20 07:37:56;;;;;;;13.25;1.55;;;;;;;;;;5127273;27;20055;-68
2023/04/20 07:40:24;;;;;;;4.55;1.70;;;;;;;;;;5126302;27;20521;-68
2023/04/20 07:42:52;;;;;;;6.63;1.60;;;;;;;;;;5126953;27;20127;-68
2023/04/20 07:45:20;;;;;;;7.85;2.00;;;;;;;;;;5129915;27;20047;-68
2023/04/20 07:47:50;;;;;;;11.13;2.30;;;;;;;;;;5109482;27;20503;-68
2023/04/20 07:50:17;;;;;;;8.98;1.88;;;;;;;;;;5129392;27;20474;-68
2023/04/20 07:52:45;;;;;;;8.70;2.13;;;;;;;;;;5127245;27;20063;-68
2023/04/20 07:55:13;;;;;;;7.97;2.00;;;;;;;;;;5109756;27;20120;-68
2023/04/20 07:57:41;;;;;;;6.38;2.03;;;;;;;;;;5127936;27;20047;-68
2023/04/20 08:00:11;;;;;;;7.93;2.03;;;;;;;;;;5129003;27;20129;-68
2023/04/20 08:02:40;;;;;;;11.95;2.45;;;;;;;;;;5127679;27;20051;-68
2023/04/20 08:05:08;;;;;;;8.98;2.47;;;;;;;;;;5127143;27;20047;-69
2023/04/20 08:07:36;;;;;;;6.47;2.35;;;;;;;;;;5127146;27;20047;-69
2023/04/20 08:10:03;;;;;;;10.32;2.42;;;;;;;;;;5126590;27;20058;-68
2023/04/20 08:12:30;;;;;;;8.00;2.42;;;;;;;;;;5127211;27;20039;-68
2023/04/20 08:15:00;;;;;;;6.30;2.28;;;;;;;;;;5127088;27;20043;-69
2023/04/20 08:17:29;;;;;;;7.00;2.17;;;;;;;;;;5128826;27;20490;-69
2023/04/20 08:19:56;;;;;;;11.40;2.30;;;;;;;;;;5128222;27;20047;-69
2023/04/20 08:22:26;;;;;;;8.13;2.35;;;;;;;;;;5127958;27;20290;-68
2023/04/20 08:24:53;;;;;;;7.75;2.22;;;;;;;;;;5128397;27;20244;-68
2023/04/20 08:27:20;;;;;;;9.82;2.38;;;;;;;;;;5128738;27;20043;-68
2023/04/20 08:29:47;;;;;;;8.68;3.05;;;;;;;;;;5108235;27;20043;-68
2023/04/20 08:32:17;;;;;;;6.97;2.30;;;;;;;;;;5127026;27;20043;-68
2023/04/20 08:34:45;;;;;;;10.77;2.60;;;;;;;;;;5126717;27;20047;-67
2023/04/20 08:37:13;;;;;;;10.88;2.72;;;;;;;;;;5128542;27;20051;-68
2023/04/20 08:39:40;;;;;;;6.63;2.60;;;;;;;;;;5128405;27;20047;-68
2023/04/20 08:42:08;;;;;;;7.15;2.25;;;;;;;;;;5127843;27;20047;-68
2023/04/20 08:44:35;;;;;;;8.18;2.58;;;;;;;;;;5108667;27;20540;-68
2023/04/20 08:47:03;;;;;;;13.85;3.47;;;;;;;;;;5128609;27;20446;-68
2023/04/20 08:49:31;;;;;;;9.20;2.42;;;;;;;;;;5107907;27;20046;-68
2023/04/20 08:52:00;;;;;;;9.38;2.50;;;;;;;;;;5125708;27;20112;-69
2023/04/20 08:54:27;;;;;;;9.32;2.60;;;;;;;;;;5123892;27;20059;-68
2023/04/20 08:56:54;;;;;;;9.82;2.67;;;;;;;;;;5122149;27;20486;-68
2023/04/20 08:59:21;;;;;;;8.88;2.75;;;;;;;;;;5127088;27;20082;-68
2023/04/20 09:01:49;;;;;;;9.02;2.67;;;;;;;;;;5125177;27;20843;-69
2023/04/20 09:04:17;;;;;;;8.55;2.85;;;;;;;;;;5111019;27;20050;-68
2023/04/20 09:06:45;;;;;;;7.55;2.78;;;;;;;;;;5106881;27;20419;-68
2023/04/20 09:09:13;;;;;;;8.95;3.15;;;;;;;;;;5110574;27;20172;-68
2023/04/20 09:11:41;;;;;;;11.82;3.20;;;;;;;;;;5108428;28;20081;-68
2023/04/20 09:14:11;;;;;;;10.60;3.38;;;;;;;;;;5111855;27;20402;-68
2023/04/20 09:16:39;;;;;;;7.13;2.90;;;;;;;;;;5109264;27;20051;-67
2023/04/20 09:19:07;;;;;;;10.48;3.30;;;;;;;;;;5110370;27;20092;-69
2023/04/20 09:21:34;;;;;;;9.55;3.60;;;;;;;;;;5115363;27;20075;-68
2023/04/20 09:24:02;;;;;;;15.75;3.55;;;;;;;;;;5103596;28;20570;-68
2023/04/20 09:26:34;;;;;;;6.78;2.90;;;;;;;;;;5115723;27;20532;-68
2023/04/20 09:29:01;;;;;;;11.13;3.85;;;;;;;;;;5107443;28;20083;-68
2023/04/20 09:31:28;;;;;;;7.18;3.17;;;;;;;;;;5111078;27;20040;-68
2023/04/20 09:34:00;;;;;;;8.48;3.47;;;;;;;;;;5112013;28;20043;-67
2023/04/20 09:36:36;;;;;;;9.40;3.53;;;;;;;;;;5110955;28;20063;-67
2023/04/20 09:39:04;;;;;;;9.00;3.10;;;;;;;;;;5107063;28;20087;-67
2023/04/20 09:41:35;;;;;;;6.70;2.90;;;;;;;;;;5109009;28;20054;-67
2023/04/20 09:44:02;;;;;;;9.20;3.25;;;;;;;;;;5117925;28;20146;-67
2023/04/20 09:46:31;;;;;;;11.93;3.30;;;;;;;;;;5113282;28;20054;-67
2023/04/20 09:48:59;;;;;;;8.95;3.25;;;;;;;;;;5113987;28;20561;-69
2023/04/20 09:51:27;;;;;;;10.50;3.38;;;;;;;;;;5110124;28;20086;-70
2023/04/20 09:53:56;;;;;;;9.73;3.03;;;;;;;;;;5106244;28;20043;-70
2023/04/20 09:56:23;;;;;;;10.77;3.30;;;;;;;;;;5113398;28;20043;-70
2023/04/20 09:58:52;;;;;;;12.52;3.45;;;;;;;;;;5115171;27;20051;-70
2023/04/20 10:01:20;;;;;;;15.02;3.10;;;;;;;;;;5115948;27;20054;-70
2023/04/20 10:03:48;;;;;;;13.52;3.28;;;;;;;;;;5124612;27;20047;-70
2023/04/20 10:06:19;;;;;;;10.18;3.15;;;;;;;;;;5128662;27;20085;-70
2023/04/20 10:08:47;;;;;;;12.07;3.80;;;;;;;;;;5131829;27;20142;-70
2023/04/20 10:11:25;;;;;;;12.75;3.28;;;;;;;;;;5131326;27;20050;-70
2023/04/20 10:13:54;;;;;;;8.75;3.50;;;;;;;;;;5128790;27;20138;-70
2023/04/20 10:16:21;;;;;;;12.50;3.50;;;;;;;;;;5131480;27;20039;-70
2023/04/20 10:18:59;;;;;;;9.57;2.90;;;;;;;;;;5131032;27;20054;-70
2023/04/20 10:21:26;;;;;;;7.80;3.10;;;;;;;;;;5129433;27;20118;-70
2023/04/20 10:23:55;;;;;;;9.52;3.08;;;;;;;;;;5125936;27;20046;-70
2023/04/20 10:26:22;;;;;;;8.63;3.17;;;;;;;;;;5132451;27;20512;-70
2023/04/20 10:28:50;;;;;;;8.10;3.08;;;;;;;;;;5130342;27;20130;-70
2023/04/20 10:31:20;;;;;;;8.70;3.67;;;;;;;;;;5131002;27;20050;-70
2023/04/20 10:33:54;;;;;;;8.13;3.00;;;;;;;;;;5129291;27;20043;-70
2023/04/20 10:36:23;;;;;;;7.00;3.28;;;;;;;;;;5131118;27;20050;-70
2023/04/20 10:38:52;;;;;;;7.75;3.30;;;;;;;;;;5129553;27;20393;-71
2023/04/20 10:41:19;;;;;;;7.07;3.42;;;;;;;;;;5131137;27;20560;-70
2023/04/20 10:43:47;;;;;;;6.70;3.30;;;;;;;;;;5131010;27;20076;-70
2023/04/20 10:46:20;;;;;;;9.32;3.00;;;;;;;;;;5130218;27;20124;-70
2023/04/20 10:48:51;;;;;;;8.75;3.40;;;;;;;;;;5111627;27;20055;-70
2023/04/20 10:51:18;;;;;;;8.07;3.13;;;;;;;;;;5112156;27;20072;-70
2023/04/20 10:53:46;;;;;;;7.10;2.85;;;;;;;;;;5130755;27;20050;-70
2023/04/20 10:56:13;;;;;;;8.40;2.55;;;;;;;;;;5127582;27;20038;-70
2023/04/20 10:58:41;;;;;;;8.73;3.38;;;;;;;;;;5130831;27;20043;-70
2023/04/20 11:01:09;;;;;;;5.85;2.65;;;;;;;;;;5129275;27;20059;-70
2023/04/20 11:03:37;;;;;;;7.32;2.92;;;;;;;;;;5129942;27;20054;-70
2023/04/20 11:06:05;;;;;;;9.20;2.70;;;;;;;;;;5129577;27;20133;-70
2023/04/20 11:08:42;;;;;;;7.97;3.47;;;;;;;;;;5128345;27;20075;-70
2023/04/20 11:11:19;;;;;;;10.27;2.95;;;;;;;;;;5129598;27;20039;-70
2023/04/20 11:13:46;;;;;;;7.35;2.92;;;;;;;;;;5130053;27;20055;-70
2023/04/20 11:16:14;;;;;;;6.68;2.72;;;;;;;;;;5127477;27;20391;-70
2023/04/20 11:18:51;;;;;;;7.85;3.15;;;;;;;;;;5128948;27;20051;-70
2023/04/20 11:21:18;;;;;;;7.45;2.63;;;;;;;;;;5129259;27;20096;-70
2023/04/20 11:23:46;;;;;;;5.68;3.00;;;;;;;;;;5129741;27;20039;-70
2023/04/20 11:26:13;;;;;;;6.15;3.17;;;;;;;;;;5132734;27;20083;-70
2023/04/20 11:28:51;;;;;;;5.70;3.10;;;;;;;;;;5109306;27;20054;-70
2023/04/20 11:31:19;;;;;;;8.63;3.30;;;;;;;;;;5130665;27;20132;-70
2023/04/20 11:33:46;;;;;;;9.13;3.20;;;;;;;;;;5127290;27;20061;-70
2023/04/20 11:36:20;;;;;;;10.20;3.38;;;;;;;;;;5124480;27;20549;-70
2023/04/20 11:38:48;;;;;;;8.05;3.45;;;;;;;;;;5122427;27;20043;-70
2023/04/20 11:41:16;;;;;;;8.73;4.13;;;;;;;;;;5121808;27;20043;-70
2023/04/20 11:43:43;;;;;;;8.00;3.85;;;;;;;;;;5124197;27;20043;-70
2023/04/20 11:46:15;;;;;;;8.27;3.65;;;;;;;;;;5127663;27;20047;-70
2023/04/20 11:48:42;;;;;;;9.80;3.20;;;;;;;;;;5106015;27;20055;-70
2023/04/20 11:51:10;;;;;;;9.10;3.35;;;;;;;;;;5126906;27;20047;-70
2023/04/20 11:53:38;;;;;;;10.15;3.50;;;;;;;;;;5123145;27;20130;-66
2023/04/20 11:56:07;;;;;;;5.10;3.20;;;;;;;;;;5126155;27;20055;-67
2023/04/20 11:58:35;;;;;;;6.97;3.08;;;;;;;;;;5109200;27;20062;-67
2023/04/20 12:01:03;;;;;;;7.35;3.60;;;;;;;;;;5128293;27;20139;-67
2023/04/20 12:03:31;;;;;;;9.90;3.42;;;;;;;;;;5129777;27;20077;-66
2023/04/20 12:05:58;;;;;;;7.05;3.53;;;;;;;;;;5126953;27;20073;-66
2023/04/20 12:08:25;;;;;;;8.15;3.28;;;;;;;;;;5110753;27;20047;-66
2023/04/20 12:10:54;;;;;;;10.32;3.55;;;;;;;;;;5126537;27;20435;-66
2023/04/20 12:13:21;;;;;;;9.90;3.45;;;;;;;;;;5128950;27;20045;-66
2023/04/20 12:15:48;;;;;;;8.57;3.83;;;;;;;;;;5127516;27;20398;-66
2023/04/20 12:18:16;;;;;;;9.85;4.00;;;;;;;;;;5126569;27;20059;-66
2023/04/20 12:20:44;;;;;;;10.65;4.32;;;;;;;;;;5129621;27;20479;-66
2023/04/20 12:23:11;;;;;;;5.03;2.85;;;;;;;;;;5127693;27;20047;-67
2023/04/20 12:25:39;;;;;;;6.93;3.20;;;;;;;;;;5106815;27;20065;-66
2023/04/20 12:28:07;;;;;;;7.90;3.55;;;;;;;;;;5128236;27;20148;-66
2023/04/20 12:30:35;;;;;;;8.60;3.30;;;;;;;;;;5127155;27;20419;-66
2023/04/20 12:33:02;;;;;;;7.07;3.70;;;;;;;;;;5127804;27;20053;-67
2023/04/20 12:35:30;;;;;;;6.95;3.47;;;;;;;;;;5127822;27;20343;-67
2023/04/20 12:37:57;;;;;;;6.90;3.55;;;;;;;;;;5128094;27;20054;-67
2023/04/20 12:40:24;;;;;;;7.13;3.90;;;;;;;;;;5129100;27;20043;-67
2023/04/20 12:42:52;;;;;;;5.93;3.55;;;;;;;;;;5127268;27;20051;-66
2023/04/20 12:45:20;;;;;;;6.47;3.20;;;;;;;;;;5104866;27;20066;-66
2023/04/20 12:47:48;;;;;;;8.55;3.65;;;;;;;;;;5127802;27;20049;-67
2023/04/20 12:50:15;;;;;;;6.57;3.67;;;;;;;;;;5128662;27;20074;-67
2023/04/20 12:52:42;;;;;;;7.72;3.63;;;;;;;;;;5122534;27;21834;-67
2023/04/20 12:55:10;;;;;;;6.65;3.67;;;;;;;;;;5127705;27;20066;-67
2023/04/20 12:57:37;;;;;;;10.02;3.72;;;;;;;;;;5127715;27;20043;-66
2023/04/20 13:00:07;;;;;;;5.82;3.25;;;;;;;;;;5128201;27;20071;-67
2023/04/20 13:02:36;;;;;;;5.97;3.85;;;;;;;;;;5106453;27;20100;-66
2023/04/20 13:05:04;;;;;;;8.63;3.22;;;;;;;;;;5123733;27;20035;-67
2023/04/20 13:07:31;;;;;;;6.80;3.50;;;;;;;;;;5127178;27;20070;-67
2023/04/20 13:09:59;;;;;;;7.65;3.60;;;;;;;;;;5107335;27;20055;-67
2023/04/20 13:12:26;;;;;;;6.70;3.10;;;;;;;;;;5127374;27;20051;-67
2023/04/20 13:14:53;;;;;;;5.97;3.50;;;;;;;;;;5128294;27;20509;-67
2023/04/20 13:17:21;;;;;;;5.85;3.80;;;;;;;;;;5127608;27;20050;-67
2023/04/20 13:19:50;;;;;;;7.03;4.15;;;;;;;;;;5128318;27;20089;-67
2023/04/20 13:22:18;;;;;;;7.30;4.18;;;;;;;;;;5125467;27;20039;-67
2023/04/20 13:24:45;;;;;;;6.43;4.20;;;;;;;;;;5123473;27;20160;-67
2023/04/20 13:27:13;;;;;;;6.85;4.00;;;;;;;;;;5126119;27;20058;-66
2023/04/20 13:29:40;;;;;;;6.88;4.38;;;;;;;;;;5128278;27;20063;-67
2023/04/20 13:32:07;;;;;;;7.90;4.28;;;;;;;;;;5127463;27;20054;-67
2023/04/20 13:34:34;;;;;;;7.25;4.43;;;;;;;;;;5127803;27;20051;-66
2023/04/20 13:37:03;;;;;;;7.35;4.00;;;;;;;;;;5127109;27;20131;-68
2023/04/20 13:39:32;;;;;;;6.10;3.83;;;;;;;;;;5125795;27;20424;-67
2023/04/20 13:42:00;;;;;;;9.20;4.45;;;;;;;;;;5127408;27;20047;-67
2023/04/20 13:44:27;;;;;;;9.40;4.50;;;;;;;;;;5124593;27;20047;-67
2023/04/20 13:46:55;;;;;;;6.47;3.60;;;;;;;;;;5126752;27;20035;-67
2023/04/20 13:49:22;;;;;;;6.63;3.92;;;;;;;;;;5127881;27;20484;-67
2023/04/20 13:51:50;;;;;;;7.38;4.32;;;;;;;;;;5124344;27;20456;-67
2023/04/20 13:54:19;;;;;;;8.82;4.00;;;;;;;;;;5127117;27;20537;-72
2023/04/20 13:56:46;;;;;;;6.13;3.72;;;;;;;;;;5126987;27;20043;-72
2023/04/20 13:59:14;;;;;;;6.13;3.80;;;;;;;;;;5123057;27;20530;-72
2023/04/20 14:01:41;;;;;;;5.38;3.42;;;;;;;;;;5127469;27;20043;-72
2023/04/20 14:04:09;;;;;;;4.97;3.40;;;;;;;;;;5122607;27;20043;-72
2023/04/20 14:06:36;;;;;;;6.18;3.50;;;;;;;;;;5128156;27;20035;-72
2023/04/20 14:09:04;;;;;;;6.47;3.80;;;;;;;;;;5127558;27;20047;-72
2023/04/20 14:11:32;;;;;;;5.72;3.65;;;;;;;;;;5128879;27;20051;-72
2023/04/20 14:14:00;;;;;;;4.45;3.33;;;;;;;;;;5127694;27;20079;-72
2023/04/20 14:16:27;;;;;;;5.30;3.88;;;;;;;;;;5128544;27;20122;-72
2023/04/20 14:18:54;;;;;;;8.93;4.20;;;;;;;;;;5127907;27;20066;-71
2023/04/20 14:21:21;;;;;;;6.03;3.90;;;;;;;;;;5128185;27;20047;-71
2023/04/20 14:23:52;;;;;;;8.13;3.90;;;;;;;;;;5124243;27;20048;-71
2023/04/20 14:26:19;;;;;;;6.03;3.90;;;;;;;;;;5123579;27;20054;-71
2023/04/20 14:28:48;;;;;;;6.38;4.50;;;;;;;;;;5120265;27;20079;-71
2023/04/20 14:31:15;;;;;;;5.15;3.72;;;;;;;;;;5124607;27;20085;-72
2023/04/20 14:33:43;;;;;;;6.55;4.18;;;;;;;;;;5126754;27;20051;-71
2023/04/20 14:36:11;;;;;;;7.10;4.47;;;;;;;;;;5127080;27;20833;-72
2023/04/20 14:38:38;;;;;;;6.03;3.75;;;;;;;;;;5126645;27;20559;-72
2023/04/20 14:41:05;;;;;;;6.03;4.00;;;;;;;;;;5108750;28;20051;-71
2023/04/20 14:43:33;;;;;;;4.93;3.70;;;;;;;;;;5127783;27;20069;-72
2023/04/20 14:46:02;;;;;;;5.32;3.72;;;;;;;;;;5129311;27;20677;-71